createdAt,value
2018-06-11T00:01:46.867Z,95269.67
2018-06-11T00:04:16.189Z,95263.98
2018-06-11T00:06:45.524Z,95256.73
2018-06-11T00:09:14.895Z,95257.61
2018-06-11T00:11:44.338Z,95254.43
2018-06-11T00:14:13.679Z,95259.72
2018-06-11T00:16:43.133Z,95254.52
2018-06-11T00:19:12.505Z,95255.22
2018-06-11T00:21:42.241Z,95253.95
2018-06-11T00:24:11.673Z,95243.64
2018-06-11T00:26:41.013Z,95246.70
2018-06-11T00:29:10.354Z,95247.42
2018-06-11T00:31:39.742Z,95246.63
2018-06-11T00:34:09.112Z,95242.39
2018-06-11T00:36:38.422Z,95249.01
2018-06-11T00:39:08.987Z,95249.08
2018-06-11T00:41:38.383Z,95246.07
2018-06-11T00:44:07.741Z,95242.81
2018-06-11T00:46:37.062Z,95240.42
2018-06-11T00:49:06.430Z,95239.45
2018-06-11T00:51:35.803Z,95239.23
2018-06-11T00:54:05.138Z,95243.00
2018-06-11T00:56:34.508Z,95238.37
2018-06-11T00:59:03.872Z,95241.02
2018-06-11T01:01:33.242Z,95244.36
2018-06-11T01:04:02.591Z,95246.27
2018-06-11T01:06:31.917Z,95236.95
2018-06-11T01:09:01.301Z,95241.31
2018-06-11T01:11:30.658Z,95244.27
2018-06-11T01:14:00.017Z,95236.77
2018-06-11T01:16:29.343Z,95238.84
2018-06-11T01:18:58.691Z,95239.88
2018-06-11T01:21:28.025Z,95240.03
2018-06-11T01:23:57.356Z,95245.64
2018-06-11T01:26:26.735Z,95239.81
2018-06-11T01:29:59.095Z,95237.98
2018-06-11T01:32:28.524Z,95242.92
2018-06-11T01:34:57.849Z,95246.27
2018-06-11T01:37:27.286Z,95250.58
2018-06-11T01:39:56.696Z,95242.19
2018-06-11T01:42:26.098Z,95243.14
2018-06-11T01:44:55.516Z,95240.28
2018-06-11T01:47:25.052Z,95237.50
2018-06-11T01:49:54.518Z,95244.50
2018-06-11T01:52:24.053Z,95237.09
2018-06-11T01:54:53.496Z,95231.67
2018-06-11T01:57:22.997Z,95236.07
2018-06-11T01:59:52.485Z,95232.41
2018-06-11T02:02:21.924Z,95232.63
2018-06-11T02:04:51.369Z,95238.05
2018-06-11T02:07:20.784Z,95231.53
2018-06-11T02:09:50.190Z,95237.58
2018-06-11T02:12:19.614Z,95231.75
2018-06-11T02:14:49.010Z,95233.98
2018-06-11T02:17:18.390Z,95227.69
2018-06-11T02:19:47.757Z,95228.56
2018-06-11T02:22:17.142Z,95222.73
2018-06-11T02:24:46.556Z,95218.34
2018-06-11T02:27:15.918Z,95222.99
2018-06-11T02:29:45.296Z,95220.76
2018-06-11T02:32:14.636Z,95218.75
2018-06-11T02:34:43.926Z,95213.17
2018-06-11T02:37:13.311Z,95210.94
2018-06-11T02:39:42.666Z,95201.45
2018-06-11T02:42:12.021Z,95204.64
2018-06-11T02:44:41.404Z,95204.09
2018-06-11T02:47:10.806Z,95199.87
2018-06-11T02:49:40.205Z,95197.38
2018-06-11T02:52:09.598Z,95201.45
2018-06-11T02:54:38.959Z,95199.62
2018-06-11T02:57:08.323Z,95202.33
2018-06-11T02:59:37.640Z,95191.94
2018-06-11T03:02:06.991Z,95197.75
2018-06-11T03:04:36.374Z,95192.01
2018-06-11T03:07:05.707Z,95192.33
2018-06-11T03:12:03.530Z,95193.14
2018-06-11T03:14:32.842Z,95197.20
2018-06-11T03:17:02.203Z,95198.70
2018-06-11T03:19:31.538Z,95197.20
2018-06-11T03:22:01.154Z,95196.80
2018-06-11T03:24:30.456Z,95197.73
2018-06-11T03:26:59.850Z,95185.88
2018-06-11T03:29:29.208Z,95183.38
2018-06-11T03:31:58.545Z,95180.45
2018-06-11T03:34:27.874Z,95179.73
2018-06-11T03:36:57.384Z,95176.53
2018-06-11T03:39:26.751Z,95170.02
2018-06-11T03:41:56.184Z,95172.31
2018-06-11T03:44:25.575Z,95175.73
2018-06-11T03:46:55.008Z,95171.27
2018-06-11T03:49:24.424Z,95176.53
2018-06-11T03:51:53.958Z,95172.88
2018-06-11T03:54:23.428Z,95172.47
2018-06-11T03:56:52.877Z,95170.02
2018-06-11T03:59:22.282Z,95171.25
2018-06-11T04:01:51.661Z,95160.90
2018-06-11T04:04:21.024Z,95160.42
2018-06-11T04:06:50.444Z,95157.64
2018-06-11T04:09:19.827Z,95155.80
2018-06-11T04:11:48.916Z,95161.30
2018-06-11T04:14:18.351Z,95154.47
2018-06-11T04:16:47.456Z,95159.19
2018-06-11T04:19:16.883Z,95151.53
2018-06-11T04:21:46.342Z,95159.26
2018-06-11T04:24:15.822Z,95156.95
2018-06-11T04:26:45.256Z,95157.83
2018-06-11T04:29:14.598Z,95157.50
2018-06-11T04:31:44.022Z,95162.06
2018-06-11T04:34:13.458Z,95155.28
2018-06-11T04:36:42.856Z,95153.75
2018-06-11T04:39:12.270Z,95148.97
2018-06-11T04:41:41.745Z,95150.41
2018-06-11T04:44:11.450Z,95149.77
2018-06-11T04:46:40.927Z,95149.66
2018-06-11T04:49:10.301Z,95160.63
2018-06-11T04:51:39.686Z,95145.52
2018-06-11T04:54:09.102Z,95147.52
2018-06-11T04:56:38.629Z,95146.16
2018-06-11T04:59:08.029Z,95156.77
2018-06-11T05:01:37.477Z,95161.55
2018-06-11T05:04:07.312Z,95166.57
2018-06-11T05:06:36.654Z,95159.13
2018-06-11T05:09:07.964Z,95153.01
2018-06-11T05:11:37.343Z,95163.86
2018-06-11T05:14:06.748Z,95157.22
2018-06-11T05:16:36.129Z,95159.30
2018-06-11T05:19:05.595Z,95156.09
2018-06-11T05:21:35.469Z,95153.94
2018-06-11T05:24:04.963Z,95148.90
2018-06-11T05:26:34.473Z,95144.63
2018-06-11T05:29:03.877Z,95143.28
2018-06-11T05:31:33.558Z,95142.98
2018-06-11T05:34:02.933Z,95142.14
2018-06-11T05:36:32.292Z,95134.80
2018-06-11T05:39:01.651Z,95134.14
2018-06-11T05:41:31.198Z,95133.16
2018-06-11T05:44:00.598Z,95136.77
2018-06-11T05:46:29.938Z,95124.80
2018-06-11T05:48:59.394Z,95129.14
2018-06-11T05:51:35.316Z,95122.05
2018-06-11T05:54:04.989Z,95118.06
2018-06-11T05:56:34.461Z,95118.19
2018-06-11T05:59:03.960Z,95119.12
2018-06-11T06:01:33.370Z,95124.84
2018-06-11T06:04:02.748Z,95123.52
2018-06-11T06:06:32.170Z,95127.89
2018-06-11T06:09:01.519Z,95123.38
2018-06-11T06:11:30.887Z,95129.26
2018-06-11T06:14:00.250Z,95133.02
2018-06-11T06:16:29.687Z,95131.45
2018-06-11T06:18:59.039Z,95136.48
2018-06-11T06:21:28.690Z,95139.50
2018-06-11T06:23:58.058Z,95143.22
2018-06-11T06:26:27.494Z,95139.78
2018-06-11T06:29:01.676Z,95141.97
2018-06-11T06:31:31.624Z,95147.96
2018-06-11T06:34:01.116Z,95148.45
2018-06-11T06:36:30.481Z,95145.17
2018-06-11T06:39:00.507Z,95138.48
2018-06-11T06:41:29.895Z,95139.31
2018-06-11T06:43:59.091Z,95139.46
2018-06-11T06:46:28.491Z,95136.30
2018-06-11T06:48:57.882Z,95140.41
2018-06-11T06:51:27.406Z,95140.66
2018-06-11T06:53:56.871Z,95136.25
2018-06-11T06:56:26.276Z,95135.03
2018-06-11T06:58:55.740Z,95143.00
2018-06-11T07:01:25.120Z,95144.61
2018-06-11T07:03:54.658Z,95150.52
2018-06-11T07:06:24.111Z,95149.63
2018-06-11T07:08:53.590Z,95152.70
2018-06-11T07:11:23.104Z,95155.23
2018-06-11T07:13:52.591Z,95160.33
2018-06-11T07:16:22.014Z,95157.50
2018-06-11T07:18:51.452Z,95162.84
2018-06-11T07:21:21.234Z,95161.27
2018-06-11T07:23:50.696Z,95163.30
2018-06-11T07:26:20.202Z,95173.09
2018-06-11T07:28:49.579Z,95172.32
2018-06-11T07:31:19.152Z,95170.84
2018-06-11T07:33:48.608Z,95165.03
2018-06-11T07:36:17.998Z,95170.13
2018-06-11T07:38:47.395Z,95166.25
2018-06-11T07:41:16.790Z,95168.51
2018-06-11T07:43:46.180Z,95169.54
2018-06-11T07:46:15.580Z,95179.06
2018-06-11T07:48:45.001Z,95173.59
2018-06-11T07:51:14.510Z,95171.94
2018-06-11T07:53:43.894Z,95166.66
2018-06-11T07:56:13.287Z,95163.98
2018-06-11T07:58:42.733Z,95161.93
2018-06-11T08:01:12.116Z,95149.56
2018-06-11T08:03:41.491Z,95156.31
2018-06-11T08:06:10.946Z,95151.56
2018-06-11T08:08:40.343Z,95150.84
2018-06-11T08:11:09.738Z,95145.89
2018-06-11T08:13:39.218Z,95148.94
2018-06-11T08:16:08.499Z,95147.45
2018-06-11T08:18:38.225Z,95144.43
2018-06-11T08:21:07.591Z,95145.18
2018-06-11T08:23:36.949Z,95141.03
2018-06-11T08:26:06.336Z,95140.38
2018-06-11T08:28:35.719Z,95137.81
2018-06-11T08:31:05.076Z,95133.86
2018-06-11T08:33:34.581Z,95131.36
2018-06-11T08:36:03.909Z,95132.17
2018-06-11T08:38:33.336Z,95137.78
2018-06-11T08:41:02.801Z,95132.58
2018-06-11T08:43:32.114Z,95141.25
2018-06-11T08:46:01.461Z,95131.00
2018-06-11T08:48:30.809Z,95133.09
2018-06-11T08:51:00.110Z,95133.25
2018-06-11T08:53:29.473Z,95134.97
2018-06-11T08:55:58.854Z,95135.27
2018-06-11T08:58:28.213Z,95132.17
2018-06-11T09:00:57.558Z,95129.92
2018-06-11T09:03:27.030Z,95129.41
2018-06-11T09:05:56.470Z,95123.27
2018-06-11T09:08:25.875Z,95127.47
2018-06-11T09:10:55.237Z,95125.30
2018-06-11T09:13:24.616Z,95126.86
2018-06-11T09:15:54.253Z,95118.50
2018-06-11T09:18:24.026Z,95118.25
2018-06-11T09:20:53.374Z,95120.53
2018-06-11T09:23:22.801Z,95121.36
2018-06-11T09:25:52.653Z,95124.34
2018-06-11T09:28:22.126Z,95119.09
2018-06-11T09:30:51.482Z,95120.42
2018-06-11T09:33:20.948Z,95114.03
2018-06-11T09:35:50.285Z,95112.18
2018-06-11T09:38:19.639Z,95116.53
2018-06-11T09:40:49.044Z,95115.84
2018-06-11T09:43:18.544Z,95122.48
2018-06-11T09:45:47.909Z,95115.05
2018-06-11T09:48:17.283Z,95113.14
2018-06-11T09:50:46.696Z,95109.19
2018-06-11T09:53:16.101Z,95115.51
2018-06-11T09:55:45.521Z,95113.36
2018-06-11T09:58:15.001Z,95097.50
2018-06-11T10:00:44.407Z,95103.28
2018-06-11T10:03:13.770Z,95097.87
2018-06-11T10:05:43.146Z,95096.27
2018-06-11T10:08:12.721Z,95102.34
2018-06-11T10:10:42.115Z,95086.09
2018-06-11T10:13:11.504Z,95087.69
2018-06-11T10:15:40.992Z,95090.69
2018-06-11T10:18:10.800Z,95086.63
2018-06-11T10:20:40.193Z,95085.73
2018-06-11T10:23:09.621Z,95084.36
2018-06-11T10:25:38.977Z,95078.95
2018-06-11T10:28:08.357Z,95080.08
2018-06-11T10:30:37.823Z,95078.05
2018-06-11T10:33:07.233Z,95066.77
2018-06-11T10:35:36.571Z,95066.99
2018-06-11T10:38:05.979Z,95063.08
2018-06-11T10:40:35.338Z,95063.54
2018-06-11T10:43:04.686Z,95055.08
2018-06-11T10:45:34.123Z,95060.30
2018-06-11T10:48:03.523Z,95062.55
2018-06-11T10:50:32.954Z,95054.47
2018-06-11T10:53:02.311Z,95051.84
2018-06-11T10:55:31.801Z,95055.33
2018-06-11T10:58:01.697Z,95054.69
2018-06-11T11:00:31.170Z,95048.78
2018-06-11T11:03:00.582Z,95039.80
2018-06-11T11:05:30.001Z,95033.37
2018-06-11T11:07:59.460Z,95036.02
2018-06-11T11:10:29.218Z,95031.09
2018-06-11T11:12:58.754Z,95026.77
2018-06-11T11:15:28.216Z,95022.81
2018-06-11T11:17:57.659Z,95012.35
2018-06-11T11:20:27.250Z,95015.66
2018-06-11T11:22:56.844Z,95013.25
2018-06-11T11:25:26.450Z,94999.67
2018-06-11T11:27:56.047Z,94979.99
2018-06-11T11:30:25.658Z,94994.48
2018-06-11T11:32:55.397Z,94988.67
2018-06-11T11:35:25.162Z,94976.13
2018-06-11T11:37:55.119Z,94972.88
2018-06-11T11:40:24.957Z,94974.85
2018-06-11T11:42:54.597Z,94974.36
2018-06-11T11:45:24.301Z,94967.91
2018-06-11T11:47:53.911Z,94965.63
2018-06-11T11:50:23.651Z,94961.72
2018-06-11T11:52:53.131Z,94947.80
2018-06-11T11:55:22.651Z,94936.61
2018-06-11T11:57:52.035Z,94935.69
2018-06-11T12:00:21.863Z,94928.23
2018-06-11T12:02:52.271Z,94915.63
2018-06-11T12:05:21.700Z,94906.58
2018-06-11T12:07:51.277Z,94904.63
2018-06-11T12:10:20.691Z,94905.42
2018-06-11T12:12:50.095Z,94904.19
2018-06-11T12:15:19.719Z,94900.63
2018-06-11T12:17:49.176Z,94896.52
2018-06-11T12:20:18.522Z,94898.63
2018-06-11T12:22:47.845Z,94903.89
2018-06-11T12:25:17.334Z,94906.64
2018-06-11T12:27:46.782Z,94905.45
2018-06-11T12:30:16.403Z,94901.32
2018-06-11T12:32:46.361Z,94896.81
2018-06-11T12:35:15.746Z,94892.45
2018-06-11T12:37:45.180Z,94884.52
2018-06-11T12:40:14.678Z,94870.89
2018-06-11T12:42:43.989Z,94875.91
2018-06-11T12:45:14.263Z,94866.28
2018-06-11T12:47:43.662Z,94868.45
2018-06-11T12:50:12.986Z,94867.20
2018-06-11T12:52:42.426Z,94879.39
2018-06-11T12:55:11.763Z,94886.68
2018-06-11T12:57:41.108Z,94890.52
2018-06-11T13:00:10.493Z,94891.96
2018-06-11T13:02:39.816Z,94892.05
2018-06-11T13:05:09.177Z,94899.10
2018-06-11T13:07:38.733Z,94892.23
2018-06-11T13:10:08.458Z,94890.69
2018-06-11T13:12:38.303Z,94889.36
2018-06-11T13:15:07.700Z,94882.52
2018-06-11T13:17:37.086Z,94879.05
2018-06-11T13:20:06.462Z,94878.63
2018-06-11T13:22:35.928Z,94872.97
2018-06-11T13:25:05.416Z,94881.83
2018-06-11T13:27:34.814Z,94880.06
2018-06-11T13:30:04.615Z,94881.55
2018-06-11T13:32:34.000Z,94877.50
2018-06-11T13:35:03.366Z,94876.64
2018-06-11T13:37:32.801Z,94879.30
2018-06-11T13:40:02.180Z,94880.38
2018-06-11T13:42:31.554Z,94871.16
2018-06-11T13:45:00.949Z,94866.31
2018-06-11T13:47:30.344Z,94855.85
2018-06-11T13:49:59.733Z,94845.33
2018-06-11T13:52:29.128Z,94841.71
2018-06-11T13:54:58.602Z,94832.39
2018-06-11T13:57:28.125Z,94827.38
2018-06-11T13:59:57.533Z,94827.24
2018-06-11T14:02:26.971Z,94811.88
2018-06-11T14:04:56.385Z,94810.62
2018-06-11T14:07:25.848Z,94799.36
2018-06-11T14:09:55.298Z,94781.88
2018-06-11T14:12:24.860Z,94768.52
2018-06-11T14:14:54.393Z,94756.93
2018-06-11T14:17:24.100Z,94745.14
2018-06-11T14:19:53.551Z,94737.50
2018-06-11T14:22:23.124Z,94750.88
2018-06-11T14:24:52.869Z,94754.49
2018-06-11T14:27:22.436Z,94745.66
2018-06-11T14:29:52.121Z,94726.09
2018-06-11T14:32:21.790Z,94725.91
2018-06-11T14:34:51.233Z,94728.61
2018-06-11T14:37:20.756Z,94740.36
2018-06-11T14:39:50.214Z,94751.06
2018-06-11T14:42:19.659Z,94756.74
2018-06-11T14:44:49.091Z,94753.72
2018-06-11T14:47:18.577Z,94752.70
2018-06-11T14:49:47.968Z,94748.34
2018-06-11T14:54:54.721Z,94762.69
2018-06-11T14:57:23.891Z,94767.42
2018-06-11T14:59:53.029Z,94772.31
2018-06-11T15:02:22.194Z,94768.34
2018-06-11T15:04:51.661Z,94772.94
2018-06-11T15:07:20.795Z,94756.78
2018-06-11T15:09:49.928Z,94748.79
2018-06-11T15:12:19.072Z,94739.66
2018-06-11T15:14:48.201Z,94737.44
2018-06-11T15:17:17.326Z,94741.82
2018-06-11T15:19:46.477Z,94746.20
2018-06-11T15:22:15.611Z,94749.55
2018-06-11T15:24:44.762Z,94749.42
2018-06-11T15:27:14.238Z,94745.78
2018-06-11T15:29:43.157Z,94740.55
2018-06-11T15:32:12.281Z,94744.21
2018-06-11T15:34:41.419Z,94739.05
2018-06-11T15:37:10.549Z,94737.64
2018-06-11T15:39:39.714Z,94728.38
2018-06-11T15:42:08.835Z,94726.39
2018-06-11T15:44:37.960Z,94713.81
2018-06-11T15:47:07.090Z,94702.64
2018-06-11T15:49:36.225Z,94695.38
2018-06-11T15:52:05.366Z,94682.71
2018-06-11T15:54:34.693Z,94674.84
2018-06-11T15:57:03.834Z,94663.55
2018-06-11T15:59:32.958Z,94659.63
2018-06-11T16:02:02.106Z,94654.38
2018-06-11T16:04:31.262Z,94656.73
2018-06-11T16:07:00.397Z,94657.73
2018-06-11T16:09:29.537Z,94661.07
2018-06-11T16:11:58.699Z,94667.53
2018-06-11T16:14:27.793Z,94681.59
2018-06-11T16:16:56.927Z,94677.84
2018-06-11T16:19:26.057Z,94684.91
2018-06-11T16:21:54.988Z,94686.05
2018-06-11T16:24:24.139Z,94678.61
2018-06-11T16:26:53.273Z,94669.59
2018-06-11T16:29:22.410Z,94661.55
2018-06-11T16:31:51.581Z,94651.23
2018-06-11T16:34:20.986Z,94649.38
2018-06-11T16:36:50.109Z,94644.06
2018-06-11T16:39:19.268Z,94643.87
2018-06-11T16:41:48.461Z,94640.72
2018-06-11T16:44:17.712Z,94637.16
2018-06-11T16:46:46.891Z,94645.11
2018-06-11T16:49:16.088Z,94662.06
2018-06-11T16:51:45.246Z,94669.25
2018-06-11T16:54:14.433Z,94665.90
2018-06-11T16:56:43.613Z,94670.12
2018-06-11T16:59:12.820Z,94665.83
2018-06-11T17:01:42.317Z,94655.84
2018-06-11T17:04:11.509Z,94659.34
2018-06-11T17:06:40.690Z,94657.78
2018-06-11T17:09:09.913Z,94645.24
2018-06-11T17:11:39.413Z,94642.09
2018-06-11T17:14:08.582Z,94636.42
2018-06-11T17:16:37.767Z,94650.09
2018-06-11T17:19:07.109Z,94663.78
2018-06-11T17:21:36.289Z,94667.88
2018-06-11T17:24:05.479Z,94675.67
2018-06-11T17:26:34.673Z,94689.13
2018-06-11T17:29:03.912Z,94691.02
2018-06-11T17:31:33.070Z,94706.97
2018-06-11T17:34:02.249Z,94721.64
2018-06-11T17:36:31.602Z,94725.73
2018-06-11T17:39:00.785Z,94727.83
2018-06-11T17:41:29.959Z,94728.48
2018-06-11T17:43:59.731Z,94733.80
2018-06-11T17:46:28.926Z,94738.58
2018-06-11T17:48:58.117Z,94731.31
2018-06-11T17:51:27.322Z,94733.20
2018-06-11T17:53:56.500Z,94739.17
2018-06-11T17:56:25.493Z,94741.36
2018-06-11T17:58:54.715Z,94728.08
2018-06-11T18:01:23.897Z,94726.86
2018-06-11T18:03:53.069Z,94724.81
2018-06-11T18:06:22.269Z,94737.45
2018-06-11T18:08:51.433Z,94745.53
2018-06-11T18:11:20.609Z,94751.31
2018-06-11T18:13:49.801Z,94743.69
2018-06-11T18:16:18.994Z,94758.38
2018-06-11T18:18:48.192Z,94757.87
2018-06-11T18:21:17.361Z,94764.52
2018-06-11T18:23:46.532Z,94776.56
2018-06-11T18:26:15.753Z,94785.31
2018-06-11T18:28:44.922Z,94786.61
2018-06-11T18:31:14.160Z,94783.30
2018-06-11T18:33:43.346Z,94779.33
2018-06-11T18:36:12.533Z,94784.48
2018-06-11T18:38:41.774Z,94783.66
2018-06-11T18:41:10.998Z,94769.75
2018-06-11T18:43:40.198Z,94772.39
2018-06-11T18:46:09.345Z,94770.03
2018-06-11T18:48:38.496Z,94771.08
2018-06-11T18:51:07.644Z,94767.59
2018-06-11T18:53:36.822Z,94780.92
2018-06-11T18:56:06.259Z,94784.72
2018-06-11T18:58:35.398Z,94778.55
2018-06-11T19:01:04.613Z,94787.77
2018-06-11T19:03:33.750Z,94789.98
2018-06-11T19:06:02.883Z,94796.56
2018-06-11T19:08:32.070Z,94814.03
2018-06-11T19:11:01.342Z,94824.09
2018-06-11T19:13:30.713Z,94826.29
2018-06-11T19:16:00.721Z,94837.58
2018-06-11T19:18:29.626Z,94845.98
2018-06-11T19:20:58.774Z,94852.80
2018-06-11T19:23:28.037Z,94854.16
2018-06-11T19:25:57.177Z,94868.36
2018-06-11T19:28:26.622Z,94881.65
2018-06-11T19:30:55.805Z,94880.41
2018-06-11T19:33:25.050Z,94884.28
2018-06-11T19:35:54.233Z,94890.11
2018-06-11T19:38:23.424Z,94899.73
2018-06-11T19:40:52.727Z,94911.02
2018-06-11T19:43:21.916Z,94913.95
2018-06-11T19:45:51.066Z,94914.15
2018-06-11T19:48:20.245Z,94926.73
2018-06-11T19:50:49.486Z,94923.12
2018-06-11T19:53:18.607Z,94919.14
2018-06-11T19:55:47.793Z,94927.52
2018-06-11T19:58:17.207Z,94936.16
2018-06-11T20:00:46.346Z,94931.15
2018-06-11T20:03:15.461Z,94936.03
2018-06-11T20:05:44.607Z,94938.75
2018-06-11T20:08:13.734Z,94934.63
2018-06-11T20:10:42.937Z,94939.55
2018-06-11T20:13:12.166Z,94936.13
2018-06-11T20:15:41.289Z,94939.97
2018-06-11T20:18:10.426Z,94930.13
2018-06-11T20:20:39.618Z,94931.70
2018-06-11T20:23:08.813Z,94924.80
2018-06-11T20:25:37.980Z,94926.92
2018-06-11T20:28:07.172Z,94930.66
2018-06-11T20:30:36.345Z,94924.55
2018-06-11T20:33:05.757Z,94915.59
2018-06-11T20:35:34.931Z,94917.29
2018-06-11T20:38:04.109Z,94910.91
2018-06-11T20:40:33.325Z,94914.99
2018-06-11T20:43:02.593Z,94913.70
2018-06-11T20:45:31.741Z,94917.39
2018-06-11T20:48:00.965Z,94917.00
2018-06-11T20:50:30.181Z,94915.23
2018-06-11T20:52:59.297Z,94916.55
2018-06-11T20:55:28.449Z,94919.02
2018-06-11T20:57:57.630Z,94923.74
2018-06-11T21:00:26.732Z,94922.37
2018-06-11T21:02:55.876Z,94924.17
2018-06-11T21:05:25.381Z,94931.52
2018-06-11T21:07:54.515Z,94932.86
2018-06-11T21:10:23.689Z,94936.94
2018-06-11T21:12:52.982Z,94933.66
2018-06-11T21:15:22.191Z,94935.02
2018-06-11T21:17:51.343Z,94930.50
2018-06-11T21:20:20.513Z,94927.57
2018-06-11T21:22:49.456Z,94935.92
2018-06-11T21:25:18.735Z,94930.70
2018-06-11T21:27:47.938Z,94927.44
2018-06-11T21:30:17.125Z,94932.05
2018-06-11T21:32:46.314Z,94935.67
2018-06-11T21:35:15.500Z,94942.00
2018-06-11T21:37:44.718Z,94943.80
2018-06-11T21:40:13.885Z,94943.59
2018-06-11T21:42:43.081Z,94952.17
2018-06-11T21:45:12.277Z,94955.01
2018-06-11T21:47:41.441Z,94955.05
2018-06-11T21:50:10.625Z,94957.61
2018-06-11T21:52:39.810Z,94951.88
2018-06-11T21:55:08.994Z,94956.66
2018-06-11T21:57:38.162Z,94956.53
2018-06-11T22:00:08.185Z,94949.47
2018-06-11T22:02:37.374Z,94949.35
2018-06-11T22:05:06.573Z,94957.22
2018-06-11T22:07:35.501Z,94955.80
2018-06-11T22:10:04.686Z,94950.23
2018-06-11T22:12:33.882Z,94957.73
2018-06-11T22:15:03.058Z,94958.41
2018-06-11T22:17:32.249Z,94959.98
2018-06-11T22:20:01.419Z,94973.20
2018-06-11T22:22:30.582Z,94965.67
2018-06-11T22:24:59.769Z,94971.94
2018-06-11T22:27:28.952Z,94972.80
2018-06-11T22:29:58.264Z,94974.43
2018-06-11T22:32:27.406Z,94975.38
2018-06-11T22:34:56.525Z,94980.28
2018-06-11T22:37:25.657Z,94980.55
2018-06-11T22:39:54.837Z,94975.05
2018-06-11T22:42:23.985Z,94981.80
2018-06-11T22:44:53.115Z,94977.59
2018-06-11T22:47:22.245Z,94973.83
2018-06-11T22:49:51.368Z,94969.84
2018-06-11T22:52:20.501Z,94970.35
2018-06-11T22:54:49.646Z,94979.47
2018-06-11T22:57:18.777Z,94975.48
2018-06-11T22:59:47.907Z,94976.70
2018-06-11T23:02:17.027Z,94970.19
2018-06-11T23:04:46.169Z,94970.52
2018-06-11T23:07:15.298Z,94968.83
2018-06-11T23:09:44.453Z,94968.19
2018-06-11T23:12:13.573Z,94963.70
2018-06-11T23:14:42.755Z,94964.72
2018-06-11T23:17:11.938Z,94966.83
2018-06-11T23:19:41.097Z,94964.25
2018-06-11T23:22:10.282Z,94964.63
2018-06-11T23:24:39.457Z,94961.70
2018-06-11T23:27:08.633Z,94958.49
2018-06-11T23:29:37.797Z,94961.32
2018-06-11T23:32:06.973Z,94955.27
2018-06-11T23:34:36.149Z,94958.45
2018-06-11T23:37:05.394Z,94954.96
2018-06-11T23:39:34.565Z,94962.52
2018-06-11T23:42:03.783Z,94957.89
2018-06-11T23:44:32.949Z,94950.36
2018-06-11T23:47:02.118Z,94949.72
2018-06-11T23:49:31.914Z,94949.08
2018-06-11T23:52:01.071Z,94951.45
2018-06-11T23:54:30.254Z,94947.34
2018-06-11T23:56:59.441Z,94946.41
2018-06-11T23:59:28.829Z,94946.54
